Archival Weather

Chicago O'Hare International

Chicago, Illinois (KORD)

Report from: Tuesday, December 6, 2022 8:17 AM CST
Current time: Saturday, February 4, 2023 11:20 PM CST

Current weather
Weather history
Weather forecast

Temperature4.4°C (39.9°F)
Wind chill2.6°C (36.7°F)
Dew point0.6°C (33.1°F)
Winds 4 kts (2.1 m/s, 4.6 mph) North (350°)
Visibility10 mi. (16.1 km)
Clouds Ceiling: Broken clouds 2,600 ft. (792 m)
Overcast 4,600 ft. (1,402 m)
Altimeter30.02 in.Hg (1017 mB)
Relative humidity76 %
Density altitude-1,300 ft. (-396 m)
Remarks Automated weather observing station with precipitation discriminator
Flight conditions Marginal Visual Meteorological Conditions
Raw dataKORD 061417Z 35004KT 10SM BKN026 OVC046 04/01 A3002 RMK AO2 T00440006
An unhandled exception has occurred. See browser dev tools for details. Reload 🗙